createdAt,value
2018-07-16T00:00:11.841Z,73.54
2018-07-16T00:01:17.816Z,73.79
2018-07-16T00:02:23.811Z,72.81
2018-07-16T00:03:29.806Z,73.57
2018-07-16T00:04:35.779Z,72.49
2018-07-16T00:05:41.716Z,72.21
2018-07-16T00:06:47.680Z,71.71
2018-07-16T00:07:53.258Z,72.09
2018-07-16T00:08:59.522Z,71.72
2018-07-16T00:10:04.771Z,71.74
2018-07-16T00:11:10.715Z,72.03
2018-07-16T00:12:21.802Z,71.76
2018-07-16T00:13:28.164Z,72.92
2018-07-16T00:14:34.396Z,72.73
2018-07-16T00:15:40.620Z,72.79
2018-07-16T00:16:46.574Z,72.96
2018-07-16T00:17:52.787Z,73.06
2018-07-16T00:18:59.059Z,73.52
2018-07-16T00:20:04.364Z,74.26
2018-07-16T00:21:10.301Z,73.92
2018-07-16T00:22:15.949Z,74.87
2018-07-16T00:23:22.080Z,74.64
2018-07-16T00:24:27.697Z,74.57
2018-07-16T00:25:33.831Z,73.74
2018-07-16T00:26:39.805Z,73.54
2018-07-16T00:27:46.067Z,73.12
2018-07-16T00:28:52.061Z,72.93
2018-07-16T00:29:58.307Z,72.78
2018-07-16T00:31:04.581Z,72.99
2018-07-16T00:32:10.226Z,73.01
2018-07-16T00:33:16.551Z,74.08
2018-07-16T00:34:22.564Z,74.25
2018-07-16T00:35:28.565Z,75.36
2018-07-16T00:36:34.194Z,74.07
2018-07-16T00:37:40.161Z,74.46
2018-07-16T00:38:46.148Z,73.24
2018-07-16T00:39:52.145Z,74.05
2018-07-16T00:40:58.139Z,74.42
2018-07-16T00:42:04.100Z,74.86
2018-07-16T00:43:10.328Z,73.98
2018-07-16T00:44:16.332Z,74.04
2018-07-16T00:45:22.303Z,73.96
2018-07-16T00:46:28.241Z,73.31
2018-07-16T00:47:34.189Z,73.47
2018-07-16T00:48:40.490Z,73.50
2018-07-16T00:49:46.507Z,74.55
2018-07-16T00:50:52.470Z,75.08
2018-07-16T00:51:58.102Z,74.52
2018-07-16T00:53:03.694Z,74.63
2018-07-16T00:54:10.074Z,75.07
2018-07-16T00:55:15.997Z,75.50
2018-07-16T00:56:22.064Z,77.03
2018-07-16T00:57:28.210Z,77.26
2018-07-16T00:58:34.624Z,76.46
2018-07-16T00:59:40.633Z,75.66
2018-07-16T01:00:46.569Z,75.17
2018-07-16T01:01:51.463Z,74.87
2018-07-16T01:02:58.494Z,74.83
2018-07-16T01:04:06.417Z,74.63
2018-07-16T01:05:13.272Z,75.29
2018-07-16T01:06:18.935Z,75.97
2018-07-16T01:07:24.899Z,76.76
2018-07-16T01:08:30.870Z,76.22
2018-07-16T01:09:37.143Z,75.85
2018-07-16T01:10:43.119Z,76.29
2018-07-16T01:11:49.082Z,77.32
2018-07-16T01:12:55.284Z,77.57
2018-07-16T01:14:01.275Z,78.55
2018-07-16T01:15:07.222Z,76.84
2018-07-16T01:16:13.201Z,75.75
2018-07-16T01:17:19.147Z,76.07
2018-07-16T01:18:25.135Z,76.57
2018-07-16T01:19:33.225Z,76.09
2018-07-16T01:20:39.199Z,75.74
2018-07-16T01:21:45.161Z,76.22
2018-07-16T01:22:51.328Z,75.71
2018-07-16T01:23:57.278Z,76.75
2018-07-16T01:25:03.362Z,77.26
2018-07-16T01:26:09.016Z,77.03
2018-07-16T01:27:15.023Z,76.39
2018-07-16T01:28:20.783Z,76.69
2018-07-16T01:29:26.772Z,76.39
2018-07-16T01:30:32.767Z,76.30
2018-07-16T01:31:38.784Z,76.83
2018-07-16T01:32:44.877Z,76.98
2018-07-16T01:33:50.884Z,77.60
2018-07-16T01:34:56.872Z,77.68
2018-07-16T01:36:02.829Z,77.40
2018-07-16T01:37:08.787Z,77.20
2018-07-16T01:38:14.763Z,76.79
2018-07-16T01:39:21.036Z,76.50
2018-07-16T01:40:27.046Z,75.76
2018-07-16T01:41:33.059Z,76.93
2018-07-16T01:42:39.055Z,76.93
2018-07-16T01:43:45.047Z,76.46
2018-07-16T01:44:51.072Z,77.12
2018-07-16T01:45:57.023Z,76.75
2018-07-16T01:47:03.009Z,77.69
2018-07-16T01:48:08.955Z,77.71
2018-07-16T01:49:14.929Z,76.99
2018-07-16T01:50:20.935Z,78.01
2018-07-16T01:51:31.848Z,79.17
2018-07-16T01:52:37.857Z,78.64
2018-07-16T01:53:44.073Z,78.16
2018-07-16T01:54:50.371Z,77.18
2018-07-16T01:55:56.347Z,77.42
2018-07-16T01:57:02.403Z,77.09
2018-07-16T01:58:08.382Z,77.39
2018-07-16T01:59:14.440Z,77.04
2018-07-16T02:00:20.708Z,77.56
2018-07-16T02:01:26.324Z,77.44
2018-07-16T02:02:32.364Z,77.76
2018-07-16T02:03:38.403Z,77.20
2018-07-16T02:04:44.391Z,78.49
2018-07-16T02:05:50.367Z,78.39
2018-07-16T02:06:56.346Z,77.95
2018-07-16T02:08:02.338Z,78.12
2018-07-16T02:09:08.354Z,77.99
2018-07-16T02:10:15.300Z,77.82
2018-07-16T02:11:21.271Z,78.91
2018-07-16T02:12:27.274Z,79.02
2018-07-16T02:13:33.283Z,79.17
2018-07-16T02:14:39.279Z,79.18
2018-07-16T02:15:45.268Z,79.54
2018-07-16T02:16:50.887Z,79.80
2018-07-16T02:17:57.162Z,79.67
2018-07-16T02:19:03.143Z,79.64
2018-07-16T02:20:09.140Z,80.02
2018-07-16T02:21:15.176Z,80.20
2018-07-16T02:22:20.808Z,80.10
2018-07-16T02:23:26.809Z,79.71
2018-07-16T02:24:32.805Z,79.54
2018-07-16T02:25:38.839Z,79.87
2018-07-16T02:26:44.854Z,79.44
2018-07-16T02:27:50.836Z,79.73
2018-07-16T02:28:56.916Z,79.28
2018-07-16T02:30:02.974Z,78.86
2018-07-16T02:31:08.952Z,78.65
2018-07-16T02:32:14.963Z,78.08
2018-07-16T02:33:21.256Z,77.98
2018-07-16T02:34:27.267Z,78.24
2018-07-16T02:35:33.055Z,77.80
2018-07-16T02:36:39.614Z,78.99
2018-07-16T02:37:45.549Z,80.30
2018-07-16T02:38:50.865Z,81.21
2018-07-16T02:39:56.921Z,82.20
2018-07-16T02:41:02.893Z,82.26
2018-07-16T02:42:08.864Z,82.17
2018-07-16T02:43:14.867Z,82.04
2018-07-16T02:44:20.845Z,82.54
2018-07-16T02:45:26.864Z,82.01
2018-07-16T02:46:32.905Z,83.91
2018-07-16T02:47:38.997Z,82.87
2018-07-16T02:48:45.282Z,82.55
2018-07-16T02:49:51.282Z,82.22
2018-07-16T02:50:57.334Z,82.78
2018-07-16T02:52:03.321Z,83.03
2018-07-16T02:53:09.291Z,82.25
2018-07-16T02:54:15.579Z,82.14
2018-07-16T02:55:21.624Z,81.70
2018-07-16T02:56:27.764Z,81.73
2018-07-16T02:57:33.869Z,81.34
2018-07-16T02:58:39.918Z,80.99
2018-07-16T02:59:45.898Z,80.43
2018-07-16T03:00:51.973Z,80.33
2018-07-16T03:01:57.974Z,81.02
2018-07-16T03:03:03.881Z,83.00
2018-07-16T03:04:10.157Z,84.65
2018-07-16T03:05:16.143Z,85.93
2018-07-16T03:06:22.169Z,86.18
2018-07-16T03:07:28.198Z,85.73
2018-07-16T03:08:34.192Z,85.10
2018-07-16T03:09:40.400Z,85.05
2018-07-16T03:10:46.423Z,84.96
2018-07-16T03:11:52.069Z,84.37
2018-07-16T03:12:58.080Z,84.25
2018-07-16T03:14:04.092Z,84.01
2018-07-16T03:15:09.750Z,84.26
2018-07-16T03:16:15.733Z,85.03
2018-07-16T03:17:21.754Z,85.96
2018-07-16T03:18:27.767Z,86.53
2018-07-16T03:19:33.810Z,86.20
2018-07-16T03:20:39.866Z,85.87
2018-07-16T03:21:45.876Z,84.49
2018-07-16T03:22:51.879Z,85.34
2018-07-16T03:23:57.831Z,84.96
2018-07-16T03:25:03.859Z,84.14
2018-07-16T03:26:09.946Z,84.59
2018-07-16T03:27:15.922Z,84.68
2018-07-16T03:28:21.945Z,84.55
2018-07-16T03:29:27.978Z,84.40
2018-07-16T03:30:34.069Z,84.64
2018-07-16T03:31:40.058Z,83.90
2018-07-16T03:32:46.344Z,83.60
2018-07-16T03:33:52.341Z,83.62
2018-07-16T03:34:58.363Z,84.15
2018-07-16T03:36:04.403Z,83.92
2018-07-16T03:37:11.569Z,84.40
2018-07-16T03:38:17.568Z,84.04
2018-07-16T03:39:23.617Z,84.30
2018-07-16T03:40:29.647Z,84.61
2018-07-16T03:41:35.718Z,84.13
2018-07-16T03:42:41.722Z,84.39
2018-07-16T03:43:47.723Z,84.17
2018-07-16T03:44:53.642Z,83.92
2018-07-16T03:45:59.278Z,84.49
2018-07-16T03:47:05.244Z,84.42
2018-07-16T03:48:11.250Z,85.30
2018-07-16T03:49:17.257Z,85.23
2018-07-16T03:50:23.237Z,84.93
2018-07-16T03:51:29.216Z,85.18
2018-07-16T03:52:35.230Z,85.28
2018-07-16T03:53:41.191Z,84.84
2018-07-16T03:54:47.414Z,86.00
2018-07-16T03:55:53.514Z,85.66
2018-07-16T03:56:59.697Z,84.39
2018-07-16T03:58:05.699Z,85.70
2018-07-16T03:59:12.208Z,84.80
2018-07-16T04:00:18.486Z,85.79
2018-07-16T04:01:24.496Z,86.67
2018-07-16T04:02:30.490Z,86.33
2018-07-16T04:03:36.495Z,85.20
2018-07-16T04:04:42.485Z,85.40
2018-07-16T04:05:48.527Z,85.70
2018-07-16T04:06:54.163Z,85.90
2018-07-16T04:08:00.177Z,85.74
2018-07-16T04:09:06.154Z,85.30
2018-07-16T04:10:11.800Z,85.45
2018-07-16T04:11:17.768Z,84.89
2018-07-16T04:12:23.392Z,85.49
2018-07-16T04:13:29.337Z,85.87
2018-07-16T04:14:35.308Z,85.05
2018-07-16T04:15:41.298Z,85.68
2018-07-16T04:16:46.947Z,85.12
2018-07-16T04:17:52.928Z,84.84
2018-07-16T04:18:58.938Z,84.07
2018-07-16T04:20:04.893Z,84.55
2018-07-16T04:21:11.819Z,85.91
2018-07-16T04:22:17.455Z,85.77
2018-07-16T04:23:23.404Z,85.21
2018-07-16T04:24:29.393Z,84.00
2018-07-16T04:25:35.347Z,82.97
2018-07-16T04:26:41.359Z,82.85
2018-07-16T04:27:48.483Z,82.65
2018-07-16T04:28:54.491Z,81.23
2018-07-16T04:30:00.662Z,81.30
2018-07-16T04:31:06.706Z,81.63
2018-07-16T04:32:13.212Z,81.74
2018-07-16T04:33:19.268Z,81.58
2018-07-16T04:34:25.242Z,82.97
2018-07-16T04:35:31.198Z,84.09
2018-07-16T04:36:37.194Z,83.86
2018-07-16T04:37:43.159Z,84.55
2018-07-16T04:38:49.101Z,84.19
2018-07-16T04:39:55.159Z,83.12
2018-07-16T04:41:01.435Z,82.96
2018-07-16T04:42:07.044Z,82.56
2018-07-16T04:43:13.016Z,82.62
2018-07-16T04:44:18.994Z,83.01
2018-07-16T04:45:25.008Z,82.79
2018-07-16T04:46:31.031Z,82.54
2018-07-16T04:47:37.090Z,82.08
2018-07-16T04:48:43.066Z,81.32
2018-07-16T04:49:49.045Z,81.62
2018-07-16T04:50:55.042Z,82.00
2018-07-16T04:52:01.078Z,80.17
2018-07-16T04:53:06.772Z,78.33
2018-07-16T04:54:12.814Z,77.58
2018-07-16T04:55:18.800Z,78.48
2018-07-16T04:56:24.818Z,78.93
2018-07-16T04:57:30.805Z,78.52
2018-07-16T04:58:36.797Z,78.31
2018-07-16T04:59:42.473Z,78.78
2018-07-16T05:00:48.419Z,78.39
2018-07-16T05:01:54.652Z,78.47
2018-07-16T05:03:00.950Z,78.39
2018-07-16T05:04:06.329Z,77.69
2018-07-16T05:05:12.432Z,78.93
2018-07-16T05:06:18.528Z,78.84
2018-07-16T05:07:24.619Z,77.74
2018-07-16T05:08:30.576Z,77.07
2018-07-16T05:09:36.844Z,76.59
2018-07-16T05:10:42.922Z,76.93
2018-07-16T05:11:48.958Z,77.94
2018-07-16T05:12:55.266Z,75.96
2018-07-16T05:14:01.271Z,76.28
2018-07-16T05:15:07.541Z,75.61
2018-07-16T05:16:13.538Z,76.16
2018-07-16T05:17:19.721Z,75.54
2018-07-16T05:18:26.351Z,73.30
2018-07-16T05:19:32.453Z,73.32
2018-07-16T05:20:38.699Z,73.10
2018-07-16T05:21:44.787Z,73.41
2018-07-16T05:22:50.783Z,73.36
2018-07-16T05:23:56.754Z,73.60
2018-07-16T05:25:02.573Z,72.24
2018-07-16T05:26:08.590Z,72.30
2018-07-16T05:27:14.257Z,72.98
2018-07-16T05:28:20.549Z,73.54
2018-07-16T05:29:26.574Z,72.54
2018-07-16T05:30:32.579Z,73.03
2018-07-16T05:31:38.619Z,72.70
2018-07-16T05:32:44.974Z,72.97
2018-07-16T05:33:51.075Z,73.40
2018-07-16T05:34:57.086Z,73.09
2018-07-16T05:36:03.106Z,71.95
2018-07-16T05:37:09.100Z,72.24
2018-07-16T05:38:15.125Z,72.12
2018-07-16T05:39:21.377Z,72.52
2018-07-16T05:40:27.329Z,71.77
2018-07-16T05:41:33.449Z,71.48
2018-07-16T05:42:39.466Z,71.55
2018-07-16T05:43:45.459Z,71.74
2018-07-16T05:44:51.477Z,70.95
2018-07-16T05:45:57.464Z,70.50
2018-07-16T05:47:03.516Z,70.98
2018-07-16T05:48:09.783Z,70.68
2018-07-16T05:49:15.813Z,71.57
2018-07-16T05:50:21.817Z,69.96
2018-07-16T05:51:27.873Z,69.59
2018-07-16T05:52:33.933Z,70.09
2018-07-16T05:53:39.976Z,68.87
2018-07-16T05:54:45.931Z,68.94
2018-07-16T05:55:51.904Z,68.83
2018-07-16T05:56:57.934Z,69.09
2018-07-16T05:58:04.220Z,68.13
2018-07-16T05:59:10.247Z,67.80
2018-07-16T06:00:16.264Z,68.28
2018-07-16T06:01:22.237Z,68.37
2018-07-16T06:02:27.898Z,68.93
2018-07-16T06:03:34.088Z,68.34
2018-07-16T06:04:40.924Z,67.01
2018-07-16T06:05:47.381Z,67.25
2018-07-16T06:06:53.398Z,67.09
2018-07-16T06:07:59.365Z,66.99
2018-07-16T06:09:05.007Z,66.93
2018-07-16T06:10:11.000Z,67.26
2018-07-16T06:11:16.692Z,68.03
2018-07-16T06:12:22.729Z,67.30
2018-07-16T06:13:28.734Z,67.14
2018-07-16T06:14:34.770Z,66.60
2018-07-16T06:15:40.769Z,66.86
2018-07-16T06:16:46.835Z,67.06
2018-07-16T06:17:53.115Z,67.04
2018-07-16T06:18:59.102Z,66.84
2018-07-16T06:20:04.371Z,66.21
2018-07-16T06:21:10.010Z,66.13
2018-07-16T06:22:16.051Z,64.93
2018-07-16T06:23:22.072Z,65.57
2018-07-16T06:24:28.064Z,64.39
2018-07-16T06:25:34.202Z,64.25
2018-07-16T06:26:40.201Z,64.68
2018-07-16T06:27:46.279Z,65.37
2018-07-16T06:28:52.268Z,65.15
2018-07-16T06:29:58.286Z,64.66
2018-07-16T06:31:03.593Z,64.79
2018-07-16T06:32:09.043Z,64.09
2018-07-16T06:33:15.038Z,64.66
2018-07-16T06:34:21.026Z,64.45
2018-07-16T06:35:26.709Z,65.14
2018-07-16T06:36:32.714Z,64.93
2018-07-16T06:37:38.391Z,65.21
2018-07-16T06:38:44.389Z,64.61
2018-07-16T06:39:50.670Z,64.22
2018-07-16T06:40:56.561Z,63.89
2018-07-16T06:42:02.610Z,64.64
2018-07-16T06:43:08.300Z,64.21
2018-07-16T06:44:14.316Z,64.43
2018-07-16T06:45:19.947Z,63.49
2018-07-16T06:46:25.904Z,63.84
2018-07-16T06:47:31.932Z,62.96
2018-07-16T06:48:38.059Z,62.98
2018-07-16T06:49:44.605Z,63.06
2018-07-16T06:50:51.061Z,62.33
2018-07-16T06:51:57.268Z,61.34
2018-07-16T06:53:03.730Z,61.37
2018-07-16T06:54:10.353Z,61.10
2018-07-16T06:55:16.723Z,61.58
2018-07-16T06:56:23.373Z,61.33
2018-07-16T06:57:29.759Z,61.55
2018-07-16T06:58:35.427Z,59.08
2018-07-16T06:59:41.991Z,59.40
2018-07-16T07:00:48.190Z,60.11
2018-07-16T07:01:54.434Z,59.92
2018-07-16T07:03:00.786Z,60.60
2018-07-16T07:04:13.092Z,59.56
2018-07-16T07:05:19.306Z,60.69
2018-07-16T07:06:25.689Z,59.17
2018-07-16T07:07:32.170Z,59.46
2018-07-16T07:08:38.720Z,59.11
2018-07-16T07:09:44.783Z,58.73
2018-07-16T07:10:50.784Z,58.22
2018-07-16T07:11:59.811Z,59.02
2018-07-16T07:13:06.361Z,60.14
2018-07-16T07:14:12.761Z,59.33
2018-07-16T07:15:19.679Z,59.19
2018-07-16T07:16:26.177Z,59.29
2018-07-16T07:17:32.570Z,58.91
2018-07-16T07:18:39.074Z,58.32
2018-07-16T07:19:45.207Z,57.50
2018-07-16T07:20:51.668Z,58.14
2018-07-16T07:21:57.889Z,58.34
2018-07-16T07:23:04.787Z,58.15
2018-07-16T07:24:11.213Z,58.05
2018-07-16T07:25:17.991Z,58.41
2018-07-16T07:26:24.157Z,57.63
2018-07-16T07:27:30.913Z,58.00
2018-07-16T07:28:37.272Z,58.31
2018-07-16T07:29:45.044Z,57.79
2018-07-16T07:30:51.621Z,58.21
2018-07-16T07:31:57.698Z,57.18
2018-07-16T07:33:04.629Z,56.51
2018-07-16T07:34:10.732Z,56.83
2018-07-16T07:35:17.118Z,56.58
2018-07-16T07:36:23.795Z,57.14
2018-07-16T07:37:29.920Z,56.88
2018-07-16T07:38:36.340Z,57.30
2018-07-16T07:39:42.802Z,57.35
2018-07-16T07:40:49.133Z,56.11
2018-07-16T07:41:55.497Z,56.22
2018-07-16T07:43:01.807Z,55.85
2018-07-16T07:44:07.896Z,55.86
2018-07-16T07:45:14.206Z,55.84
2018-07-16T07:46:20.610Z,55.56
2018-07-16T07:47:27.041Z,54.33
2018-07-16T07:48:33.812Z,54.84
2018-07-16T07:49:40.545Z,54.36
2018-07-16T07:50:46.658Z,54.72
2018-07-16T07:51:53.180Z,56.74
2018-07-16T07:52:59.220Z,52.98
2018-07-16T07:54:05.569Z,52.12
2018-07-16T07:55:12.020Z,52.44
2018-07-16T07:56:18.912Z,54.46
2018-07-16T07:57:25.856Z,54.48
2018-07-16T07:58:32.758Z,55.04
2018-07-16T07:59:38.800Z,53.77
2018-07-16T08:00:44.815Z,53.59
2018-07-16T08:01:50.802Z,52.88
2018-07-16T08:02:56.865Z,53.00
2018-07-16T08:04:02.884Z,52.06
2018-07-16T08:05:08.563Z,53.39
2018-07-16T08:06:14.232Z,53.40
2018-07-16T08:07:20.012Z,53.68
2018-07-16T08:08:26.052Z,52.75
2018-07-16T08:09:31.739Z,52.94
2018-07-16T08:10:37.796Z,52.61
2018-07-16T08:11:43.797Z,51.77
2018-07-16T08:12:49.416Z,52.72
2018-07-16T08:13:55.397Z,51.96
2018-07-16T08:15:01.544Z,52.90
2018-07-16T08:16:07.096Z,50.34
2018-07-16T08:17:13.141Z,50.50
2018-07-16T08:18:19.416Z,51.08
2018-07-16T08:19:25.353Z,49.97
2018-07-16T08:20:31.566Z,49.94
2018-07-16T08:21:37.519Z,49.60
2018-07-16T08:22:43.548Z,49.91
2018-07-16T08:23:49.655Z,51.77
2018-07-16T08:24:55.344Z,48.35
2018-07-16T08:26:01.039Z,48.89
2018-07-16T08:27:06.748Z,49.29
2018-07-16T08:28:12.493Z,48.42
2018-07-16T08:29:18.406Z,48.19
2018-07-16T08:30:24.103Z,47.82
2018-07-16T08:31:30.165Z,47.76
2018-07-16T08:32:36.165Z,47.69
2018-07-16T08:33:41.931Z,46.82
2018-07-16T08:34:48.140Z,46.06
2018-07-16T08:35:54.147Z,45.93
2018-07-16T08:36:59.895Z,45.48
2018-07-16T08:38:05.977Z,45.78
2018-07-16T08:39:12.348Z,45.42
2018-07-16T08:40:18.141Z,45.22
2018-07-16T08:41:23.997Z,46.11
2018-07-16T08:42:29.958Z,45.82
2018-07-16T08:43:35.675Z,45.06
2018-07-16T08:44:41.371Z,46.02
2018-07-16T08:45:47.069Z,46.10
2018-07-16T08:46:53.062Z,45.81
2018-07-16T08:47:59.071Z,45.97
2018-07-16T08:49:04.372Z,45.71
2018-07-16T08:50:10.331Z,46.74
2018-07-16T08:51:24.604Z,46.17
2018-07-16T08:52:42.125Z,45.91
2018-07-16T08:54:03.545Z,47.82
2018-07-16T08:55:23.832Z,46.44
2018-07-16T08:56:42.891Z,45.01
2018-07-16T08:58:05.003Z,45.18
2018-07-16T08:59:24.238Z,45.99
2018-07-16T09:00:44.249Z,45.91
2018-07-16T09:02:03.597Z,46.41
2018-07-16T09:03:22.924Z,45.21
2018-07-16T09:04:42.641Z,44.43
2018-07-16T09:06:05.177Z,44.85
2018-07-16T09:07:24.818Z,44.65
2018-07-16T09:08:45.343Z,44.35
2018-07-16T09:10:04.670Z,45.12
2018-07-16T09:11:24.768Z,45.52
2018-07-16T09:12:43.624Z,45.30
2018-07-16T09:14:02.676Z,45.57
2018-07-16T09:15:21.355Z,44.70
2018-07-16T09:16:35.988Z,45.99
2018-07-16T09:17:41.970Z,44.46
2018-07-16T09:18:47.608Z,44.75
2018-07-16T09:19:53.281Z,44.77
2018-07-16T09:20:58.593Z,44.06
2018-07-16T09:22:03.909Z,44.90
2018-07-16T09:23:09.534Z,43.70
2018-07-16T09:24:15.506Z,43.19
2018-07-16T09:25:21.494Z,44.59
2018-07-16T09:26:27.339Z,44.13
2018-07-16T09:27:33.030Z,43.91
2018-07-16T09:28:38.733Z,43.42
2018-07-16T09:29:45.413Z,44.35
2018-07-16T09:30:51.184Z,43.42
2018-07-16T09:31:57.158Z,43.95
2018-07-16T09:33:02.825Z,43.14
2018-07-16T09:34:08.409Z,43.39
2018-07-16T09:35:14.074Z,43.26
2018-07-16T09:36:20.044Z,41.92
2018-07-16T09:37:25.759Z,41.83
2018-07-16T09:38:31.546Z,42.88
2018-07-16T09:39:37.441Z,41.95
2018-07-16T09:40:42.737Z,42.73
2018-07-16T09:41:48.449Z,42.55
2018-07-16T09:42:54.151Z,41.01
2018-07-16T09:43:59.531Z,41.68
2018-07-16T09:45:05.241Z,43.22
2018-07-16T09:46:10.908Z,41.48
2018-07-16T09:47:16.676Z,41.73
2018-07-16T09:48:22.334Z,40.94
2018-07-16T09:49:28.032Z,41.58
2018-07-16T09:50:33.731Z,41.05
2018-07-16T09:51:39.416Z,40.07
2018-07-16T09:52:45.084Z,40.79
2018-07-16T09:53:50.767Z,40.89
2018-07-16T09:54:56.475Z,41.55
2018-07-16T09:56:02.479Z,41.04
2018-07-16T09:57:08.336Z,40.64
2018-07-16T09:58:14.022Z,41.79
2018-07-16T09:59:19.363Z,42.15
2018-07-16T10:00:24.484Z,40.75
2018-07-16T10:01:29.915Z,42.23
2018-07-16T10:02:35.562Z,41.69
2018-07-16T10:03:41.225Z,40.40
2018-07-16T10:04:46.686Z,41.40
2018-07-16T10:05:52.394Z,40.03
2018-07-16T10:06:58.108Z,40.40
2018-07-16T10:08:03.788Z,40.47
2018-07-16T10:09:09.511Z,39.80
2018-07-16T10:10:15.261Z,39.38
2018-07-16T10:11:20.902Z,38.95
2018-07-16T10:12:26.567Z,39.04
2018-07-16T10:13:32.217Z,41.15
2018-07-16T10:14:37.944Z,40.13
2018-07-16T10:15:43.981Z,39.51
2018-07-16T10:16:49.706Z,39.76
2018-07-16T10:17:55.375Z,39.44
2018-07-16T10:19:01.056Z,38.04
2018-07-16T10:20:06.443Z,38.28
2018-07-16T10:21:12.361Z,39.08
2018-07-16T10:22:18.055Z,39.81
2018-07-16T10:23:23.733Z,39.58
2018-07-16T10:24:29.449Z,39.92
2018-07-16T10:25:35.102Z,40.26
2018-07-16T10:26:40.823Z,40.01
2018-07-16T10:27:46.174Z,41.20
2018-07-16T10:28:52.088Z,41.20
2018-07-16T10:29:57.796Z,41.15
2018-07-16T10:31:03.131Z,41.25
2018-07-16T10:32:08.895Z,41.14
2018-07-16T10:33:14.610Z,40.98
2018-07-16T10:34:20.271Z,41.09
2018-07-16T10:35:25.993Z,41.88
2018-07-16T10:36:31.704Z,42.79
2018-07-16T10:37:37.420Z,41.73
2018-07-16T10:38:43.153Z,41.97
2018-07-16T10:39:48.853Z,42.41
2018-07-16T10:40:54.525Z,41.66
2018-07-16T10:42:00.184Z,41.48
2018-07-16T10:43:05.150Z,41.89
2018-07-16T10:44:10.793Z,42.01
2018-07-16T10:45:16.477Z,44.01
2018-07-16T10:46:22.191Z,42.00
2018-07-16T10:47:27.495Z,42.26
2018-07-16T10:48:33.140Z,44.17
2018-07-16T10:49:38.853Z,43.30
2018-07-16T10:50:44.796Z,42.30
2018-07-16T10:51:50.127Z,41.54
2018-07-16T10:52:56.103Z,41.97
2018-07-16T10:54:01.507Z,42.84
2018-07-16T10:55:07.491Z,44.98
2018-07-16T10:56:13.173Z,41.79
2018-07-16T10:57:18.300Z,41.39
2018-07-16T10:58:24.486Z,42.02
2018-07-16T10:59:31.089Z,41.62
2018-07-16T11:00:37.134Z,42.56
2018-07-16T11:01:42.465Z,42.56
2018-07-16T11:02:47.801Z,42.15
2018-07-16T11:03:53.469Z,41.27
2018-07-16T11:04:59.179Z,41.65
2018-07-16T11:06:04.328Z,41.45
2018-07-16T11:07:10.020Z,41.80
2018-07-16T11:08:15.762Z,41.73
2018-07-16T11:09:21.481Z,42.13
2018-07-16T11:10:27.211Z,41.23
2018-07-16T11:11:32.917Z,42.31
2018-07-16T11:12:38.895Z,41.77
2018-07-16T11:13:44.620Z,41.05
2018-07-16T11:14:49.987Z,41.16
2018-07-16T11:15:55.690Z,40.62
2018-07-16T11:17:01.368Z,41.01
2018-07-16T11:18:06.639Z,39.58
2018-07-16T11:19:12.306Z,39.62
2018-07-16T11:20:17.995Z,38.95
2018-07-16T11:21:23.943Z,39.84
2018-07-16T11:22:29.612Z,39.30
2018-07-16T11:23:35.583Z,40.08
2018-07-16T11:24:41.249Z,41.15
2018-07-16T11:25:46.757Z,41.26
2018-07-16T11:26:52.396Z,39.72
2018-07-16T11:27:58.078Z,40.63
2018-07-16T11:29:03.743Z,39.27
2018-07-16T11:30:08.696Z,38.52
2018-07-16T11:31:14.376Z,38.27
2018-07-16T11:32:29.430Z,40.08
2018-07-16T11:33:35.339Z,40.37
2018-07-16T11:34:40.641Z,40.24
2018-07-16T11:35:46.053Z,38.56
2018-07-16T11:36:51.935Z,39.07
2018-07-16T11:37:57.632Z,39.34
2018-07-16T11:39:03.374Z,38.71
2018-07-16T11:40:09.091Z,39.33
2018-07-16T11:41:14.760Z,38.93
2018-07-16T11:42:20.485Z,37.86
2018-07-16T11:43:26.217Z,38.18
2018-07-16T11:44:31.881Z,38.09
2018-07-16T11:45:37.626Z,39.40
2018-07-16T11:46:43.332Z,37.65
2018-07-16T11:47:49.028Z,36.52
2018-07-16T11:48:54.720Z,36.76
2018-07-16T11:50:00.394Z,37.29
2018-07-16T11:51:06.115Z,38.13
2018-07-16T11:52:11.913Z,37.13
2018-07-16T11:53:17.800Z,36.95
2018-07-16T11:54:23.492Z,36.64
2018-07-16T11:55:29.179Z,36.63
2018-07-16T11:56:34.867Z,36.65
2018-07-16T11:57:40.618Z,35.98
2018-07-16T11:58:46.331Z,36.25
2018-07-16T11:59:52.314Z,36.13
2018-07-16T12:00:58.041Z,36.35
2018-07-16T12:02:03.722Z,37.82
2018-07-16T12:03:09.429Z,38.34
2018-07-16T12:04:15.112Z,37.67
2018-07-16T12:05:20.786Z,38.44
2018-07-16T12:06:26.543Z,36.41
2018-07-16T12:07:32.235Z,37.76
2018-07-16T12:08:38.004Z,36.89
2018-07-16T12:09:43.741Z,36.12
2018-07-16T12:10:49.552Z,37.02
2018-07-16T12:11:55.416Z,36.08
2018-07-16T12:13:01.110Z,35.80
2018-07-16T12:14:06.479Z,36.37
2018-07-16T12:15:12.285Z,36.67
2018-07-16T12:16:18.004Z,36.70
2018-07-16T12:17:23.724Z,36.54
2018-07-16T12:18:29.396Z,36.75
2018-07-16T12:19:35.124Z,36.27
2018-07-16T12:20:40.855Z,36.38
2018-07-16T12:21:46.581Z,36.13
2018-07-16T12:22:52.275Z,36.37
2018-07-16T12:23:58.019Z,36.72
2018-07-16T12:25:03.756Z,36.64
2018-07-16T12:26:12.389Z,36.94
2018-07-16T12:27:18.071Z,36.36
2018-07-16T12:28:23.796Z,34.99
2018-07-16T12:29:29.495Z,35.62
2018-07-16T12:30:35.189Z,35.46
2018-07-16T12:31:40.886Z,35.77
2018-07-16T12:32:46.640Z,35.36
2018-07-16T12:33:52.706Z,37.94
2018-07-16T12:34:58.029Z,36.17
2018-07-16T12:36:03.787Z,35.55
2018-07-16T12:37:09.511Z,35.02
2018-07-16T12:38:15.231Z,34.49
2018-07-16T12:39:20.963Z,33.63
2018-07-16T12:40:26.675Z,34.24
2018-07-16T12:41:32.106Z,33.92
2018-07-16T12:42:37.987Z,34.60
2018-07-16T12:43:43.294Z,34.70
2018-07-16T12:44:48.984Z,34.92
2018-07-16T12:45:54.683Z,34.84
2018-07-16T12:47:00.415Z,35.75
2018-07-16T12:48:06.371Z,35.54
2018-07-16T12:49:12.337Z,35.73
2018-07-16T12:50:18.037Z,35.68
2018-07-16T12:51:23.788Z,36.67
2018-07-16T12:52:29.523Z,37.66
2018-07-16T12:53:38.111Z,36.74
2018-07-16T12:54:43.560Z,36.10
2018-07-16T12:55:49.416Z,35.63
2018-07-16T12:56:55.155Z,35.71
2018-07-16T12:58:00.886Z,35.96
2018-07-16T12:59:06.558Z,35.13
2018-07-16T13:00:12.241Z,35.86
2018-07-16T13:01:17.611Z,34.89
2018-07-16T13:02:23.300Z,36.22
2018-07-16T13:03:29.004Z,36.23
2018-07-16T13:04:34.690Z,35.19
2018-07-16T13:05:41.373Z,35.80
2018-07-16T13:06:47.116Z,35.09
2018-07-16T13:07:52.782Z,35.76
2018-07-16T13:08:58.492Z,35.87
2018-07-16T13:10:04.518Z,37.46
2018-07-16T13:11:10.268Z,36.84
2018-07-16T13:12:15.926Z,36.86
2018-07-16T13:13:21.598Z,35.59
2018-07-16T13:14:27.307Z,35.42
2018-07-16T13:15:32.986Z,35.40
2018-07-16T13:16:38.821Z,35.61
2018-07-16T13:17:44.494Z,36.16
2018-07-16T13:18:50.196Z,35.59
2018-07-16T13:19:55.902Z,34.69
2018-07-16T13:21:01.671Z,34.61
2018-07-16T13:22:07.011Z,34.93
2018-07-16T13:23:12.706Z,34.70
2018-07-16T13:24:18.430Z,34.65
2018-07-16T13:25:23.794Z,35.15
2018-07-16T13:26:29.527Z,34.13
2018-07-16T13:27:35.246Z,34.24
2018-07-16T13:28:41.002Z,34.38
2018-07-16T13:29:47.089Z,33.54
2018-07-16T13:30:52.958Z,33.47
2018-07-16T13:31:58.677Z,33.73
2018-07-16T13:33:04.408Z,33.73
2018-07-16T13:34:10.112Z,32.53
2018-07-16T13:35:15.826Z,32.72
2018-07-16T13:36:21.515Z,32.31
2018-07-16T13:37:27.215Z,32.15
2018-07-16T13:38:32.960Z,32.35
2018-07-16T13:39:38.648Z,32.22
2018-07-16T13:40:44.354Z,32.09
2018-07-16T13:41:50.043Z,31.37
2018-07-16T13:42:55.741Z,30.91
2018-07-16T13:44:01.445Z,31.72
2018-07-16T13:45:07.020Z,31.69
2018-07-16T13:46:12.693Z,30.65
2018-07-16T13:47:18.422Z,30.85
2018-07-16T13:48:24.372Z,30.73
2018-07-16T13:49:30.069Z,30.93
2018-07-16T13:50:35.790Z,31.29
2018-07-16T13:51:41.524Z,30.51
2018-07-16T13:52:47.337Z,31.13
2018-07-16T13:53:53.187Z,30.72
2018-07-16T13:54:58.944Z,31.28
2018-07-16T13:56:04.693Z,31.27
2018-07-16T13:57:10.434Z,31.68
2018-07-16T13:58:16.158Z,31.30
2018-07-16T13:59:21.844Z,31.35
2018-07-16T14:00:27.614Z,30.82
2018-07-16T14:01:33.365Z,29.95
2018-07-16T14:02:39.103Z,29.29
2018-07-16T14:03:44.772Z,29.24
2018-07-16T14:04:50.444Z,29.03
2018-07-16T14:05:56.099Z,29.21
2018-07-16T14:07:01.826Z,29.97
2018-07-16T14:08:07.536Z,30.24
2018-07-16T14:09:13.388Z,29.75
2018-07-16T14:10:19.645Z,30.45
2018-07-16T14:11:25.006Z,29.46
2018-07-16T14:12:30.759Z,29.52
2018-07-16T14:13:36.456Z,29.74